createdAt,value
2019-05-17T00:00:27.290Z,9.95
2019-05-17T00:01:27.053Z,9.87
2019-05-17T00:02:26.520Z,9.84
2019-05-17T00:03:27.040Z,9.88
2019-05-17T00:04:26.994Z,9.81
2019-05-17T00:05:26.482Z,9.91
2019-05-17T00:06:27.513Z,9.85
2019-05-17T00:07:27.315Z,9.84
2019-05-17T00:08:33.820Z,9.84
2019-05-17T00:09:26.794Z,9.87
2019-05-17T00:10:26.485Z,9.84
2019-05-17T00:11:27.377Z,9.84
2019-05-17T00:12:27.070Z,9.84
2019-05-17T00:13:26.835Z,9.85
2019-05-17T00:14:27.148Z,9.85
2019-05-17T00:15:27.333Z,9.95
2019-05-17T00:16:26.796Z,9.90
2019-05-17T00:17:26.762Z,9.82
2019-05-17T00:18:26.505Z,9.81
2019-05-17T00:19:26.288Z,9.84
2019-05-17T00:20:26.636Z,9.84
2019-05-17T00:21:27.507Z,9.85
2019-05-17T00:22:27.047Z,9.80
2019-05-17T00:23:26.870Z,9.80
2019-05-17T00:24:26.660Z,9.84
2019-05-17T00:25:27.359Z,9.80
2019-05-17T00:26:26.966Z,9.82
2019-05-17T00:27:26.500Z,9.84
2019-05-17T00:28:26.918Z,9.82
2019-05-17T00:29:26.473Z,9.84
2019-05-17T00:30:26.674Z,9.85
2019-05-17T00:31:26.408Z,9.90
2019-05-17T00:32:27.507Z,9.84
2019-05-17T00:33:27.192Z,9.99
2019-05-17T00:34:27.030Z,9.92
2019-05-17T00:35:26.859Z,9.88
2019-05-17T00:36:26.963Z,9.82
2019-05-17T00:37:26.545Z,9.81
2019-05-17T00:38:27.436Z,9.85
2019-05-17T00:39:27.180Z,9.92
2019-05-17T00:40:26.972Z,9.88
2019-05-17T00:41:27.029Z,9.84
2019-05-17T00:42:26.610Z,9.85
2019-05-17T00:43:26.594Z,9.87
2019-05-17T00:44:27.189Z,9.82
2019-05-17T00:45:26.842Z,10.00
2019-05-17T00:46:26.838Z,10.13
2019-05-17T00:47:26.720Z,10.06
2019-05-17T00:48:26.750Z,9.99
2019-05-17T00:49:26.787Z,9.97
2019-05-17T00:50:27.501Z,9.91
2019-05-17T00:51:27.418Z,9.97
2019-05-17T00:52:27.338Z,9.88
2019-05-17T00:53:27.015Z,9.90
2019-05-17T00:54:27.045Z,9.94
2019-05-17T00:55:26.967Z,9.82
2019-05-17T00:56:26.999Z,9.85
2019-05-17T00:57:27.464Z,9.94
2019-05-17T00:58:27.060Z,10.00
2019-05-17T00:59:27.096Z,9.94
2019-05-17T01:00:27.845Z,9.82
2019-05-17T01:01:27.179Z,9.84
2019-05-17T01:02:27.186Z,9.88
2019-05-17T01:03:27.218Z,9.77
2019-05-17T01:04:27.652Z,9.84
2019-05-17T01:05:27.546Z,9.95
2019-05-17T01:06:27.630Z,9.91
2019-05-17T01:07:27.341Z,9.94
2019-05-17T01:08:27.372Z,10.00
2019-05-17T01:09:27.450Z,9.99
2019-05-17T01:10:27.435Z,9.94
2019-05-17T01:11:27.467Z,9.81
2019-05-17T01:12:27.497Z,9.94
2019-05-17T01:13:27.532Z,9.91
2019-05-17T01:14:27.560Z,9.82
2019-05-17T01:15:27.595Z,9.87
2019-05-17T01:16:27.624Z,9.81
2019-05-17T01:17:27.651Z,9.82
2019-05-17T01:18:27.687Z,9.80
2019-05-17T01:19:27.717Z,9.67
2019-05-17T01:20:27.817Z,9.74
2019-05-17T01:21:27.779Z,9.62
2019-05-17T01:22:27.808Z,9.63
2019-05-17T01:23:27.840Z,9.52
2019-05-17T01:24:27.873Z,9.52
2019-05-17T01:25:27.902Z,9.40
2019-05-17T01:26:27.933Z,9.63
2019-05-17T01:27:27.968Z,9.58
2019-05-17T01:28:27.995Z,9.67
2019-05-17T01:29:28.025Z,9.81
2019-05-17T01:30:28.059Z,9.81
2019-05-17T01:31:28.092Z,9.84
2019-05-17T01:32:28.121Z,9.73
2019-05-17T01:33:28.150Z,9.66
2019-05-17T01:34:28.183Z,9.55
2019-05-17T01:35:28.213Z,9.54
2019-05-17T01:36:28.243Z,9.62
2019-05-17T01:37:28.277Z,9.62
2019-05-17T01:38:28.306Z,9.55
2019-05-17T01:39:28.335Z,9.55
2019-05-17T01:40:28.367Z,9.58
2019-05-17T01:41:28.397Z,9.59
2019-05-17T01:42:28.432Z,9.62
2019-05-17T01:43:28.460Z,9.56
2019-05-17T01:44:28.492Z,9.59
2019-05-17T01:45:28.522Z,9.72
2019-05-17T01:46:28.551Z,9.72
2019-05-17T01:47:28.587Z,9.62
2019-05-17T01:48:28.613Z,9.59
2019-05-17T01:49:28.645Z,9.45
2019-05-17T01:50:28.678Z,9.48
2019-05-17T01:51:28.711Z,9.45
2019-05-17T01:52:28.744Z,9.40
2019-05-17T01:53:28.770Z,9.47
2019-05-17T01:54:28.800Z,9.49
2019-05-17T01:55:28.832Z,9.36
2019-05-17T01:56:28.862Z,9.39
2019-05-17T01:57:28.894Z,9.36
2019-05-17T01:58:28.927Z,9.44
2019-05-17T01:59:28.958Z,9.39
2019-05-17T02:00:28.987Z,9.49
2019-05-17T02:01:29.017Z,9.36
2019-05-17T02:02:29.052Z,9.47
2019-05-17T02:03:29.084Z,9.37
2019-05-17T02:04:29.110Z,9.47
2019-05-17T02:05:29.142Z,9.42
2019-05-17T02:06:29.192Z,9.42
2019-05-17T02:07:29.204Z,9.36
2019-05-17T02:08:29.233Z,9.37
2019-05-17T02:09:37.075Z,9.36
2019-05-17T02:10:29.296Z,9.47
2019-05-17T02:11:29.330Z,9.47
2019-05-17T02:12:29.362Z,9.42
2019-05-17T02:13:29.388Z,9.45
2019-05-17T02:14:29.420Z,9.39
2019-05-17T02:15:29.452Z,9.49
2019-05-17T02:16:29.482Z,9.44
2019-05-17T02:17:29.512Z,9.47
2019-05-17T02:18:29.547Z,9.62
2019-05-17T02:19:29.575Z,9.59
2019-05-17T02:20:29.608Z,9.54
2019-05-17T02:21:29.635Z,9.69
2019-05-17T02:22:29.670Z,9.54
2019-05-17T02:23:29.701Z,9.54
2019-05-17T02:24:29.728Z,9.70
2019-05-17T02:25:29.761Z,9.66
2019-05-17T02:26:29.792Z,9.74
2019-05-17T02:27:35.811Z,9.72
2019-05-17T02:28:32.023Z,9.73
2019-05-17T02:29:32.052Z,9.82
2019-05-17T02:30:33.479Z,9.85
2019-05-17T02:31:32.866Z,9.74
2019-05-17T02:32:33.484Z,9.84
2019-05-17T02:33:33.155Z,9.82
2019-05-17T02:34:33.466Z,9.87
2019-05-17T02:35:33.335Z,9.91
2019-05-17T02:36:33.048Z,9.84
2019-05-17T02:37:33.164Z,9.82
2019-05-17T02:38:32.844Z,9.84
2019-05-17T02:39:32.650Z,9.85
2019-05-17T02:40:33.534Z,9.82
2019-05-17T02:41:33.077Z,9.84
2019-05-17T02:42:33.000Z,9.85
2019-05-17T02:43:33.291Z,9.87
2019-05-17T02:44:33.489Z,9.85
2019-05-17T02:45:32.745Z,9.97
2019-05-17T02:46:33.550Z,9.94
2019-05-17T02:47:33.351Z,9.95
2019-05-17T02:48:33.428Z,9.95
2019-05-17T02:49:33.211Z,9.91
2019-05-17T02:50:33.115Z,9.97
2019-05-17T02:51:32.361Z,9.85
2019-05-17T02:52:32.829Z,9.87
2019-05-17T02:53:33.429Z,9.81
2019-05-17T02:54:32.754Z,9.81
2019-05-17T02:55:32.469Z,9.82
2019-05-17T02:56:32.773Z,9.80
2019-05-17T02:57:30.761Z,9.76
2019-05-17T02:58:33.086Z,9.82
2019-05-17T02:59:33.163Z,9.76
2019-05-17T03:00:34.048Z,9.84
2019-05-17T03:01:33.226Z,9.85
2019-05-17T03:02:33.942Z,9.80
2019-05-17T03:03:32.291Z,9.82
2019-05-17T03:04:32.721Z,9.82
2019-05-17T03:05:33.733Z,9.81
2019-05-17T03:06:32.866Z,9.92
2019-05-17T03:07:32.573Z,9.90
2019-05-17T03:08:34.130Z,9.92
2019-05-17T03:09:33.539Z,9.94
2019-05-17T03:10:33.557Z,10.02
2019-05-17T03:11:33.377Z,10.00
2019-05-17T03:12:32.968Z,10.06
2019-05-17T03:13:32.936Z,10.15
2019-05-17T03:14:32.733Z,10.10
2019-05-17T03:15:32.451Z,10.12
2019-05-17T03:16:33.910Z,10.24
2019-05-17T03:17:33.777Z,10.25
2019-05-17T03:18:33.382Z,10.21
2019-05-17T03:19:32.795Z,10.28
2019-05-17T03:20:32.739Z,10.41
2019-05-17T03:21:33.806Z,10.36
2019-05-17T03:22:33.238Z,10.36
2019-05-17T03:23:32.833Z,10.36
2019-05-17T03:24:33.301Z,10.46
2019-05-17T03:25:33.542Z,10.46
2019-05-17T03:26:32.807Z,10.49
2019-05-17T03:27:33.639Z,10.48
2019-05-17T03:28:33.780Z,10.53
2019-05-17T03:29:33.572Z,10.58
2019-05-17T03:30:36.589Z,10.59
2019-05-17T03:31:40.792Z,10.62
2019-05-17T03:32:36.264Z,10.68
2019-05-17T03:33:36.050Z,10.71
2019-05-17T03:34:36.845Z,10.76
2019-05-17T03:35:37.681Z,10.77
2019-05-17T03:36:36.457Z,10.75
2019-05-17T03:37:37.206Z,10.75
2019-05-17T03:38:32.597Z,10.71
2019-05-17T03:39:33.315Z,10.79
2019-05-17T03:41:01.082Z,10.77
2019-05-17T03:41:34.100Z,10.77
2019-05-17T03:42:33.117Z,10.79
2019-05-17T03:43:35.226Z,10.94
2019-05-17T03:44:33.214Z,10.86
2019-05-17T03:45:33.940Z,10.80
2019-05-17T03:46:33.448Z,10.98
2019-05-17T03:47:33.398Z,10.90
2019-05-17T03:48:33.333Z,10.86
2019-05-17T03:49:33.093Z,11.00
2019-05-17T03:50:33.541Z,10.94
2019-05-17T03:51:33.318Z,10.94
2019-05-17T03:52:33.294Z,10.84
2019-05-17T03:53:33.509Z,10.97
2019-05-17T03:54:32.693Z,10.95
2019-05-17T03:55:33.381Z,11.02
2019-05-17T03:56:33.127Z,11.05
2019-05-17T03:57:32.686Z,11.04
2019-05-17T03:58:33.538Z,11.12
2019-05-17T03:59:33.409Z,11.31
2019-05-17T04:00:35.297Z,11.35
2019-05-17T04:01:32.950Z,11.38
2019-05-17T04:02:32.861Z,11.38
2019-05-17T04:03:35.501Z,11.30
2019-05-17T04:04:33.269Z,11.41
2019-05-17T04:05:33.687Z,11.44
2019-05-17T04:06:33.191Z,11.58
2019-05-17T04:07:33.069Z,11.56
2019-05-17T04:08:33.533Z,11.52
2019-05-17T04:09:37.104Z,11.38
2019-05-17T04:10:33.806Z,11.41
2019-05-17T04:11:36.412Z,11.30
2019-05-17T04:12:33.167Z,11.27
2019-05-17T04:13:33.898Z,11.22
2019-05-17T04:14:33.640Z,11.26
2019-05-17T04:15:33.407Z,11.34
2019-05-17T04:16:33.935Z,11.31
2019-05-17T04:17:33.331Z,11.33
2019-05-17T04:18:33.764Z,11.31
2019-05-17T04:19:33.827Z,11.37
2019-05-17T04:20:33.819Z,11.58
2019-05-17T04:21:34.415Z,11.59
2019-05-17T04:22:33.496Z,11.73
2019-05-17T04:23:34.166Z,11.70
2019-05-17T04:24:33.562Z,11.81
2019-05-17T04:25:34.042Z,11.89
2019-05-17T04:26:33.636Z,11.86
2019-05-17T04:27:33.662Z,11.91
2019-05-17T04:28:33.900Z,11.99
2019-05-17T04:29:33.731Z,11.96
2019-05-17T04:30:33.766Z,12.10
2019-05-17T04:31:34.791Z,12.10
2019-05-17T04:32:33.835Z,12.02
2019-05-17T04:33:34.005Z,12.11
2019-05-17T04:34:34.095Z,12.21
2019-05-17T04:35:33.926Z,12.33
2019-05-17T04:36:33.967Z,12.37
2019-05-17T04:37:38.119Z,12.68
2019-05-17T04:38:34.030Z,13.08
2019-05-17T04:39:34.066Z,13.46
2019-05-17T04:40:34.396Z,13.64
2019-05-17T04:41:45.006Z,13.82
2019-05-17T04:42:34.167Z,13.83
2019-05-17T04:43:34.198Z,13.82
2019-05-17T04:44:34.237Z,14.20
2019-05-17T04:45:34.273Z,14.89
2019-05-17T04:46:34.303Z,15.35
2019-05-17T04:47:34.339Z,15.91
2019-05-17T04:48:34.375Z,15.73
2019-05-17T04:49:34.413Z,16.40
2019-05-17T04:50:34.445Z,16.73
2019-05-17T04:51:34.488Z,17.37
2019-05-17T04:52:34.518Z,17.44
2019-05-17T04:53:34.555Z,16.89
2019-05-17T04:54:34.592Z,16.06
2019-05-17T04:55:34.646Z,16.62
2019-05-17T04:56:34.669Z,16.32
2019-05-17T04:57:34.707Z,16.40
2019-05-17T04:58:34.744Z,17.39
2019-05-17T04:59:34.782Z,18.24
2019-05-17T05:00:34.825Z,18.26
2019-05-17T05:01:34.860Z,16.62
2019-05-17T05:02:34.913Z,17.05
2019-05-17T05:03:34.945Z,17.50
2019-05-17T05:04:38.440Z,17.69
2019-05-17T05:05:35.016Z,17.93
2019-05-17T05:06:35.061Z,17.86
2019-05-17T05:07:35.093Z,17.95
2019-05-17T05:08:35.133Z,17.90
2019-05-17T05:09:35.177Z,18.34
2019-05-17T05:10:38.385Z,17.28
2019-05-17T05:11:50.396Z,16.55
2019-05-17T05:12:35.295Z,16.84
2019-05-17T05:13:35.336Z,16.17
2019-05-17T05:14:35.384Z,16.25
2019-05-17T05:15:35.419Z,16.02
2019-05-17T05:16:35.508Z,16.72
2019-05-17T05:17:35.501Z,17.27
2019-05-17T05:18:35.540Z,17.13
2019-05-17T05:19:35.583Z,17.37
2019-05-17T05:20:35.617Z,17.19
2019-05-17T05:21:35.660Z,17.98
2019-05-17T05:22:35.699Z,18.34
2019-05-17T05:23:35.741Z,18.13
2019-05-17T05:24:35.781Z,17.72
2019-05-17T05:25:35.822Z,16.57
2019-05-17T05:26:35.864Z,17.02
2019-05-17T05:27:35.906Z,17.07
2019-05-17T05:28:35.944Z,17.39
2019-05-17T05:29:35.985Z,17.79
2019-05-17T05:30:36.026Z,17.60
2019-05-17T05:31:36.075Z,17.97
2019-05-17T05:32:36.109Z,18.31
2019-05-17T05:33:36.148Z,18.45
2019-05-17T05:34:36.191Z,18.60
2019-05-17T05:35:36.234Z,18.70
2019-05-17T05:36:36.276Z,19.04
2019-05-17T05:37:36.315Z,18.63
2019-05-17T05:38:36.355Z,18.48
2019-05-17T05:39:36.398Z,18.78
2019-05-17T05:40:36.437Z,18.89
2019-05-17T05:41:36.478Z,19.07
2019-05-17T05:42:36.530Z,18.48
2019-05-17T05:43:36.562Z,18.15
2019-05-17T05:44:36.606Z,18.09
2019-05-17T05:45:36.647Z,17.86
2019-05-17T05:46:36.688Z,18.27
2019-05-17T05:47:36.730Z,18.61
2019-05-17T05:48:36.775Z,18.89
2019-05-17T05:49:36.813Z,18.08
2019-05-17T05:50:36.858Z,18.61
2019-05-17T05:51:36.896Z,18.83
2019-05-17T05:52:36.938Z,18.57
2019-05-17T05:53:36.977Z,18.96
2019-05-17T05:54:37.021Z,19.56
2019-05-17T05:55:37.062Z,19.42
2019-05-17T05:56:37.103Z,19.67
2019-05-17T05:57:37.148Z,20.26
2019-05-17T05:58:37.193Z,19.19
2019-05-17T05:59:37.234Z,18.74
2019-05-17T06:00:37.275Z,18.23
2019-05-17T06:01:37.315Z,18.45
2019-05-17T06:02:37.359Z,18.36
2019-05-17T06:03:37.400Z,18.92
2019-05-17T06:04:37.441Z,19.72
2019-05-17T06:05:37.485Z,20.10
2019-05-17T06:06:37.527Z,20.11
2019-05-17T06:07:37.573Z,20.19
2019-05-17T06:08:37.618Z,19.22
2019-05-17T06:09:37.657Z,19.66
2019-05-17T06:10:39.485Z,20.21
2019-05-17T06:11:37.743Z,20.34
2019-05-17T06:12:37.787Z,21.17
2019-05-17T06:13:37.829Z,19.66
2019-05-17T06:14:37.871Z,19.38
2019-05-17T06:15:37.917Z,19.20
2019-05-17T06:16:37.957Z,19.08
2019-05-17T06:17:38.002Z,17.57
2019-05-17T06:18:38.046Z,17.79
2019-05-17T06:19:38.090Z,18.49
2019-05-17T06:20:38.132Z,19.15
2019-05-17T06:21:38.179Z,20.02
2019-05-17T06:22:38.221Z,19.96
2019-05-17T06:23:38.263Z,19.55
2019-05-17T06:24:38.308Z,19.96
2019-05-17T06:25:38.351Z,19.84
2019-05-17T06:26:38.398Z,20.34
2019-05-17T06:27:38.439Z,19.87
2019-05-17T06:28:38.485Z,19.37
2019-05-17T06:29:38.527Z,19.64
2019-05-17T06:30:38.571Z,19.79
2019-05-17T06:31:38.615Z,20.18
2019-05-17T06:32:38.659Z,20.53
2019-05-17T06:33:38.705Z,21.15
2019-05-17T06:34:38.748Z,21.40
2019-05-17T06:35:38.795Z,20.68
2019-05-17T06:36:38.836Z,20.04
2019-05-17T06:37:38.880Z,20.08
2019-05-17T06:38:38.925Z,20.10
2019-05-17T06:39:38.970Z,21.07
2019-05-17T06:40:39.013Z,21.28
2019-05-17T06:41:39.059Z,21.50
2019-05-17T06:42:44.117Z,20.90
2019-05-17T06:43:41.484Z,20.86
2019-05-17T06:44:41.619Z,19.84
2019-05-17T06:45:41.652Z,19.75
2019-05-17T06:46:41.611Z,20.40
2019-05-17T06:47:39.331Z,20.60
2019-05-17T06:48:39.385Z,20.71
2019-05-17T06:49:39.419Z,19.96
2019-05-17T06:50:39.465Z,19.77
2019-05-17T06:51:39.509Z,19.35
2019-05-17T06:52:39.556Z,20.07
2019-05-17T06:53:39.600Z,20.71
2019-05-17T06:54:41.668Z,20.89
2019-05-17T06:55:42.135Z,21.14
2019-05-17T06:56:41.826Z,21.54
2019-05-17T06:57:39.784Z,21.23
2019-05-17T06:58:39.830Z,20.07
2019-05-17T06:59:39.880Z,20.46
2019-05-17T07:00:40.403Z,20.80
2019-05-17T07:01:41.014Z,20.78
2019-05-17T07:02:40.287Z,21.05
2019-05-17T07:03:40.092Z,21.54
2019-05-17T07:04:40.110Z,21.72
2019-05-17T07:05:40.496Z,22.21
2019-05-17T07:06:40.617Z,21.51
2019-05-17T07:07:40.608Z,21.70
2019-05-17T07:08:40.323Z,21.68
2019-05-17T07:09:40.335Z,22.31
2019-05-17T07:10:40.385Z,22.71
2019-05-17T07:11:40.433Z,22.53
2019-05-17T07:12:54.433Z,22.37
2019-05-17T07:13:40.531Z,22.30
2019-05-17T07:14:40.569Z,21.59
2019-05-17T07:15:47.271Z,21.04
2019-05-17T07:16:40.666Z,20.36
2019-05-17T07:17:40.710Z,20.85
2019-05-17T07:18:40.759Z,20.59
2019-05-17T07:19:40.824Z,20.44
2019-05-17T07:20:40.849Z,19.71
2019-05-17T07:21:40.932Z,19.71
2019-05-17T07:22:41.148Z,18.12
2019-05-17T07:23:40.990Z,18.74
2019-05-17T07:24:41.036Z,19.67
2019-05-17T07:25:41.083Z,19.59
2019-05-17T07:26:41.136Z,19.84
2019-05-17T07:27:45.353Z,20.32
2019-05-17T07:28:41.225Z,19.85
2019-05-17T07:29:41.273Z,18.83
2019-05-17T07:30:41.319Z,19.22
2019-05-17T07:31:41.370Z,19.23
2019-05-17T07:32:41.428Z,19.75
2019-05-17T07:33:41.461Z,20.46
2019-05-17T07:34:41.508Z,21.00
2019-05-17T07:35:41.553Z,20.48
2019-05-17T07:36:41.602Z,20.04
2019-05-17T07:37:41.646Z,20.34
2019-05-17T07:38:41.696Z,20.92
2019-05-17T07:39:42.304Z,21.03
2019-05-17T07:40:41.788Z,20.75
2019-05-17T07:41:41.836Z,21.01
2019-05-17T07:42:41.886Z,20.77
2019-05-17T07:43:41.933Z,21.29
2019-05-17T07:44:44.057Z,21.13
2019-05-17T07:45:42.028Z,21.33
2019-05-17T07:46:42.074Z,21.47
2019-05-17T07:47:42.121Z,21.75
2019-05-17T07:48:42.170Z,21.43
2019-05-17T07:49:42.217Z,21.20
2019-05-17T07:50:42.263Z,21.45
2019-05-17T07:51:42.311Z,21.29
2019-05-17T07:52:42.373Z,21.37
2019-05-17T07:53:42.411Z,22.19
2019-05-17T07:54:42.459Z,22.31
2019-05-17T07:55:42.505Z,22.18
2019-05-17T07:56:42.566Z,21.89
2019-05-17T07:57:42.603Z,20.88
2019-05-17T07:58:42.651Z,21.25
2019-05-17T07:59:42.702Z,21.04
2019-05-17T08:00:42.749Z,20.19
2019-05-17T08:01:42.796Z,20.22
2019-05-17T08:02:42.843Z,20.49
2019-05-17T08:03:42.893Z,20.33
2019-05-17T08:04:42.945Z,20.00
2019-05-17T08:05:42.990Z,19.99
2019-05-17T08:06:43.036Z,19.62
2019-05-17T08:07:43.085Z,19.67
2019-05-17T08:08:43.132Z,19.79
2019-05-17T08:09:43.183Z,20.15
2019-05-17T08:10:43.229Z,20.44
2019-05-17T08:11:43.277Z,20.34
2019-05-17T08:12:43.322Z,20.68
2019-05-17T08:13:43.377Z,21.17
2019-05-17T08:14:43.419Z,21.56
2019-05-17T08:15:43.465Z,22.08
2019-05-17T08:16:43.515Z,21.80
2019-05-17T08:17:43.562Z,21.54
2019-05-17T08:18:43.611Z,21.96
2019-05-17T08:19:43.662Z,22.16
2019-05-17T08:20:43.705Z,21.03
2019-05-17T08:21:43.755Z,21.50
2019-05-17T08:22:43.804Z,21.33
2019-05-17T08:23:43.855Z,22.06
2019-05-17T08:24:43.907Z,22.18
2019-05-17T08:25:52.887Z,22.19
2019-05-17T08:26:44.003Z,23.02
2019-05-17T08:27:44.068Z,23.48
2019-05-17T08:28:44.100Z,23.18
2019-05-17T08:29:44.152Z,23.48
2019-05-17T08:30:44.206Z,23.51
2019-05-17T08:31:44.251Z,23.04
2019-05-17T08:32:44.302Z,22.16
2019-05-17T08:33:44.352Z,21.15
2019-05-17T08:34:44.405Z,21.17
2019-05-17T08:35:44.452Z,21.99
2019-05-17T08:36:44.503Z,22.07
2019-05-17T08:37:44.553Z,21.26
2019-05-17T08:38:44.604Z,21.59
2019-05-17T08:39:44.657Z,22.30
2019-05-17T08:40:44.704Z,21.45
2019-05-17T08:41:44.754Z,21.69
2019-05-17T08:42:44.807Z,21.29
2019-05-17T08:43:46.805Z,21.40
2019-05-17T08:44:44.905Z,21.32
2019-05-17T08:45:44.958Z,21.44
2019-05-17T08:46:45.004Z,21.28
2019-05-17T08:47:45.058Z,20.49
2019-05-17T08:48:45.104Z,19.08
2019-05-17T08:49:45.158Z,18.42
2019-05-17T08:50:45.203Z,18.64
2019-05-17T08:51:45.251Z,18.31
2019-05-17T08:52:45.301Z,18.18
2019-05-17T08:53:45.347Z,18.63
2019-05-17T08:54:45.394Z,18.46
2019-05-17T08:55:45.447Z,18.73
2019-05-17T08:56:45.491Z,19.38
2019-05-17T08:57:45.536Z,19.63
2019-05-17T08:58:45.587Z,19.45
2019-05-17T08:59:45.629Z,19.99
2019-05-17T09:00:45.675Z,20.22
2019-05-17T09:01:45.723Z,20.19
2019-05-17T09:02:45.774Z,20.29
2019-05-17T09:03:45.819Z,20.22
2019-05-17T09:04:45.861Z,20.02
2019-05-17T09:05:45.912Z,19.67
2019-05-17T09:06:45.957Z,19.16
2019-05-17T09:07:46.004Z,18.58
2019-05-17T09:08:46.050Z,18.91
2019-05-17T09:09:46.094Z,19.16
2019-05-17T09:10:46.144Z,19.74
2019-05-17T09:11:46.189Z,20.08
2019-05-17T09:12:46.237Z,20.30
2019-05-17T09:13:57.343Z,20.32
2019-05-17T09:14:46.330Z,20.80
2019-05-17T09:15:46.378Z,21.04
2019-05-17T09:16:46.419Z,20.03
2019-05-17T09:17:46.465Z,19.84
2019-05-17T09:18:46.512Z,19.60
2019-05-17T09:19:46.560Z,19.81
2019-05-17T09:20:46.605Z,19.47
2019-05-17T09:21:46.653Z,19.75
2019-05-17T09:22:46.697Z,20.18
2019-05-17T09:23:46.750Z,20.08
2019-05-17T09:24:46.789Z,20.04
2019-05-17T09:25:46.845Z,19.52
2019-05-17T09:26:49.183Z,19.48
2019-05-17T09:27:46.937Z,19.12
2019-05-17T09:28:46.975Z,18.45
2019-05-17T09:29:47.023Z,18.60
2019-05-17T09:30:47.069Z,18.85
2019-05-17T09:31:47.115Z,18.81
2019-05-17T09:32:47.158Z,19.08
2019-05-17T09:33:49.574Z,18.96
2019-05-17T09:34:49.656Z,19.19
2019-05-17T09:35:49.780Z,19.42
2019-05-17T09:36:49.576Z,19.20
2019-05-17T09:37:49.707Z,18.66
2019-05-17T09:38:49.300Z,18.45
2019-05-17T09:39:49.269Z,18.43
2019-05-17T09:40:47.522Z,18.76
2019-05-17T09:41:47.565Z,18.58
2019-05-17T09:42:49.758Z,19.04
2019-05-17T09:43:49.681Z,19.42
2019-05-17T09:44:49.575Z,19.77
2019-05-17T09:45:50.432Z,20.44
2019-05-17T09:46:50.259Z,21.15
2019-05-17T09:47:50.353Z,21.69
2019-05-17T09:48:50.252Z,21.68
2019-05-17T09:49:50.000Z,20.60
2019-05-17T09:50:50.231Z,20.00
2019-05-17T09:51:49.695Z,19.82
2019-05-17T09:52:49.413Z,19.89
2019-05-17T09:53:49.602Z,19.87
2019-05-17T09:54:50.184Z,19.70
2019-05-17T09:55:49.832Z,19.32
2019-05-17T09:56:49.709Z,19.38
2019-05-17T09:57:49.719Z,19.57
2019-05-17T09:58:49.525Z,19.26
2019-05-17T09:59:49.620Z,19.27
2019-05-17T10:00:49.528Z,19.05
2019-05-17T10:01:49.467Z,19.35
2019-05-17T10:02:50.865Z,19.37
2019-05-17T10:03:50.659Z,19.72
2019-05-17T10:04:50.230Z,20.10
2019-05-17T10:05:49.582Z,19.84
2019-05-17T10:06:48.696Z,19.81
2019-05-17T10:07:50.770Z,19.79
2019-05-17T10:08:49.542Z,19.74
2019-05-17T10:09:50.191Z,19.32
2019-05-17T10:11:04.288Z,19.24
2019-05-17T10:11:49.306Z,19.59
2019-05-17T10:12:49.695Z,19.48
2019-05-17T10:13:49.900Z,19.70
2019-05-17T10:14:49.837Z,20.10
2019-05-17T10:15:50.050Z,20.44
2019-05-17T10:16:49.136Z,20.44
2019-05-17T10:17:49.180Z,20.44
2019-05-17T10:18:49.224Z,20.59
2019-05-17T10:19:49.273Z,20.30
2019-05-17T10:20:50.708Z,19.99
2019-05-17T10:21:49.362Z,19.97
2019-05-17T10:22:50.463Z,20.00
2019-05-17T10:23:49.800Z,19.77
2019-05-17T10:24:49.490Z,19.35
2019-05-17T10:25:49.535Z,19.22
2019-05-17T10:26:49.952Z,19.19
2019-05-17T10:27:49.912Z,18.60
2019-05-17T10:28:51.592Z,18.71
2019-05-17T10:29:50.198Z,18.79
2019-05-17T10:30:52.385Z,18.68
2019-05-17T10:31:50.427Z,18.70
2019-05-17T10:32:50.571Z,18.45
2019-05-17T10:33:49.888Z,18.24
2019-05-17T10:34:49.930Z,18.13
2019-05-17T10:35:49.978Z,18.16
2019-05-17T10:36:50.657Z,18.00
2019-05-17T10:37:50.525Z,17.97
2019-05-17T10:38:50.344Z,18.15
2019-05-17T10:39:50.391Z,18.23
2019-05-17T10:40:50.279Z,18.09
2019-05-17T10:41:50.235Z,18.19
2019-05-17T10:42:50.274Z,18.11
2019-05-17T10:43:50.320Z,18.42
2019-05-17T10:44:51.301Z,18.21
2019-05-17T10:45:50.403Z,18.33
2019-05-17T10:46:50.445Z,18.45
2019-05-17T10:47:50.498Z,18.48
2019-05-17T10:48:50.534Z,18.61
2019-05-17T10:49:50.575Z,18.52
2019-05-17T10:50:50.613Z,18.51
2019-05-17T10:51:50.658Z,18.49
2019-05-17T10:52:50.700Z,18.60
2019-05-17T10:53:51.412Z,18.70
2019-05-17T10:54:50.784Z,19.05
2019-05-17T10:55:50.826Z,19.07
2019-05-17T10:56:50.887Z,19.09
2019-05-17T10:57:50.911Z,19.09
2019-05-17T10:58:50.958Z,18.57
2019-05-17T10:59:51.000Z,18.61
2019-05-17T11:00:51.040Z,18.52
2019-05-17T11:01:51.082Z,18.96
2019-05-17T11:02:51.125Z,19.00
2019-05-17T11:03:51.172Z,19.04
2019-05-17T11:04:51.210Z,18.78
2019-05-17T11:05:51.253Z,18.92
2019-05-17T11:06:51.298Z,19.12
2019-05-17T11:07:51.343Z,19.29
2019-05-17T11:08:51.382Z,19.35
2019-05-17T11:09:51.426Z,19.12
2019-05-17T11:10:51.464Z,19.23
2019-05-17T11:11:51.514Z,19.32
2019-05-17T11:12:51.556Z,19.59
2019-05-17T11:13:53.107Z,19.24
2019-05-17T11:15:09.408Z,19.15
2019-05-17T11:15:51.710Z,19.57
2019-05-17T11:16:51.727Z,19.67
2019-05-17T11:17:51.770Z,19.99
2019-05-17T11:18:51.815Z,20.17
2019-05-17T11:19:51.856Z,20.52
2019-05-17T11:20:51.913Z,20.50
2019-05-17T11:21:51.946Z,20.92
2019-05-17T11:22:51.987Z,21.32
2019-05-17T11:23:52.031Z,21.28
2019-05-17T11:24:52.074Z,21.15
2019-05-17T11:25:52.123Z,21.03
2019-05-17T11:26:52.172Z,21.41
2019-05-17T11:27:52.213Z,22.21
2019-05-17T11:28:52.253Z,22.31
2019-05-17T11:29:52.297Z,22.88
2019-05-17T11:30:52.344Z,23.01
2019-05-17T11:31:52.396Z,23.33
2019-05-17T11:32:52.437Z,22.67
2019-05-17T11:33:52.490Z,22.95
2019-05-17T11:34:52.532Z,23.06
2019-05-17T11:35:52.582Z,23.04
2019-05-17T11:36:52.626Z,23.02
2019-05-17T11:37:52.686Z,23.06
2019-05-17T11:38:52.721Z,23.56
2019-05-17T11:39:52.771Z,23.49
2019-05-17T11:40:52.818Z,24.11
2019-05-17T11:41:52.871Z,24.53
2019-05-17T11:42:52.918Z,24.41
2019-05-17T11:43:52.972Z,24.47
2019-05-17T11:44:53.018Z,23.79
2019-05-17T11:45:53.068Z,23.23
2019-05-17T11:46:53.117Z,23.34
2019-05-17T11:47:53.168Z,22.98
2019-05-17T11:48:53.226Z,22.71
2019-05-17T11:49:53.268Z,22.03
2019-05-17T11:50:55.144Z,22.19
2019-05-17T11:51:53.371Z,22.07
2019-05-17T11:52:53.422Z,22.30
2019-05-17T11:53:53.469Z,22.52
2019-05-17T11:54:53.517Z,22.28
2019-05-17T11:55:53.567Z,22.68
2019-05-17T11:56:53.618Z,23.06
2019-05-17T11:57:53.665Z,23.26
2019-05-17T11:58:53.718Z,23.37
2019-05-17T11:59:53.769Z,22.73
2019-05-17T12:00:53.814Z,21.84
2019-05-17T12:01:53.866Z,21.44
2019-05-17T12:02:53.920Z,21.20
2019-05-17T12:03:53.965Z,20.18
2019-05-17T12:04:54.015Z,19.08
2019-05-17T12:05:54.065Z,18.94
2019-05-17T12:06:54.123Z,18.74
2019-05-17T12:07:54.166Z,18.57
2019-05-17T12:08:54.210Z,18.33
2019-05-17T12:09:54.257Z,18.34
2019-05-17T12:10:54.404Z,17.84
2019-05-17T12:11:54.351Z,17.95
2019-05-17T12:12:54.399Z,17.87
2019-05-17T12:13:54.445Z,18.09
2019-05-17T12:14:54.493Z,18.26
2019-05-17T12:15:54.536Z,18.23
2019-05-17T12:16:54.583Z,17.97
2019-05-17T12:17:54.627Z,17.75
2019-05-17T12:18:54.674Z,17.69
2019-05-17T12:19:54.718Z,17.87
2019-05-17T12:20:54.763Z,18.06
2019-05-17T12:21:54.807Z,18.39
2019-05-17T12:22:54.849Z,18.78
2019-05-17T12:23:54.893Z,19.08
2019-05-17T12:24:54.943Z,20.27
2019-05-17T12:25:54.982Z,20.53
2019-05-17T12:26:55.025Z,20.68
2019-05-17T12:27:55.069Z,21.84
2019-05-17T12:28:55.114Z,22.89
2019-05-17T12:29:55.162Z,23.29
2019-05-17T12:30:55.204Z,23.01
2019-05-17T12:31:55.264Z,22.76
2019-05-17T12:32:55.296Z,22.01
2019-05-17T12:33:55.345Z,21.94
2019-05-17T12:34:55.391Z,22.16
2019-05-17T12:35:55.439Z,22.33
2019-05-17T12:36:55.491Z,21.07
2019-05-17T12:37:55.529Z,21.08
2019-05-17T12:38:55.575Z,21.72
2019-05-17T12:39:55.628Z,22.47
2019-05-17T12:40:55.700Z,22.67
2019-05-17T12:41:55.752Z,21.99
2019-05-17T12:42:55.765Z,22.10
2019-05-17T12:43:55.814Z,22.41
2019-05-17T12:44:55.860Z,22.16
2019-05-17T12:46:00.635Z,22.43
2019-05-17T12:46:55.966Z,22.58
2019-05-17T12:47:56.006Z,22.12
2019-05-17T12:48:56.052Z,20.74
2019-05-17T12:49:56.107Z,21.01
2019-05-17T12:50:56.153Z,20.90
2019-05-17T12:51:56.201Z,21.29
2019-05-17T12:52:56.247Z,21.91
2019-05-17T12:53:56.295Z,21.17
2019-05-17T12:54:56.340Z,20.52
2019-05-17T12:55:56.392Z,20.17
2019-05-17T12:56:56.438Z,19.74
2019-05-17T12:57:56.488Z,19.71
2019-05-17T12:58:56.535Z,20.44